sensor_id;sensor_type;location;lat;lon;timestamp;pressure;altitude;pressure_sealevel;temperature;humidity
70728;BME280;58314;47.722;17.652;2022-09-17T00:00:49;99657.19;;;12.98;93.03
70728;BME280;58314;47.722;17.652;2022-09-17T00:03:52;99659.53;;;13.03;91.37
70728;BME280;58314;47.722;17.652;2022-09-17T00:06:53;99656.75;;;13.05;91.13
70728;BME280;58314;47.722;17.652;2022-09-17T00:09:53;99649.09;;;13.00;91.20
70728;BME280;58314;47.722;17.652;2022-09-17T00:12:54;99655.28;;;13.00;91.00
70728;BME280;58314;47.722;17.652;2022-09-17T00:15:54;99646.97;;;12.92;89.59
70728;BME280;58314;47.722;17.652;2022-09-17T00:18:56;99647.63;;;12.83;93.24
70728;BME280;58314;47.722;17.652;2022-09-17T00:21:57;99642.59;;;12.91;91.11
70728;BME280;58314;47.722;17.652;2022-09-17T00:24:57;99637.44;;;12.90;89.79
70728;BME280;58314;47.722;17.652;2022-09-17T00:27:58;99645.41;;;12.90;90.34
70728;BME280;58314;47.722;17.652;2022-09-17T00:30:59;99654.72;;;12.82;92.15
70728;BME280;58314;47.722;17.652;2022-09-17T00:34:01;99649.72;;;12.78;91.75
70728;BME280;58314;47.722;17.652;2022-09-17T00:37:03;99660.00;;;12.82;90.96
70728;BME280;58314;47.722;17.652;2022-09-17T00:40:03;99673.28;;;12.82;90.85
70728;BME280;58314;47.722;17.652;2022-09-17T00:43:09;99665.56;;;12.79;90.78
70728;BME280;58314;47.722;17.652;2022-09-17T00:46:38;99666.31;;;12.81;90.42
70728;BME280;58314;47.722;17.652;2022-09-17T00:49:40;99661.38;;;12.75;89.99
70728;BME280;58314;47.722;17.652;2022-09-17T00:52:45;99659.59;;;12.76;89.69
70728;BME280;58314;47.722;17.652;2022-09-17T00:56:02;99661.59;;;12.72;91.21
70728;BME280;58314;47.722;17.652;2022-09-17T00:59:04;99668.25;;;12.65;91.52
70728;BME280;58314;47.722;17.652;2022-09-17T01:02:05;99679.31;;;12.59;93.71
70728;BME280;58314;47.722;17.652;2022-09-17T01:05:07;99672.72;;;12.65;91.37
70728;BME280;58314;47.722;17.652;2022-09-17T01:15:43;99654.78;;;12.55;93.40
70728;BME280;58314;47.722;17.652;2022-09-17T01:32:40;99673.19;;;12.44;91.65
70728;BME280;58314;47.722;17.652;2022-09-17T01:35:56;99675.56;;;12.49;94.73
70728;BME280;58314;47.722;17.652;2022-09-17T01:39:21;99672.56;;;12.53;94.39
70728;BME280;58314;47.722;17.652;2022-09-17T01:45:37;99665.97;;;12.46;94.87
70728;BME280;58314;47.722;17.652;2022-09-17T01:48:42;99664.78;;;12.37;93.25
70728;BME280;58314;47.722;17.652;2022-09-17T01:51:47;99663.84;;;12.38;96.27
70728;BME280;58314;47.722;17.652;2022-09-17T01:54:52;99659.16;;;12.29;95.06
70728;BME280;58314;47.722;17.652;2022-09-17T01:58:12;99664.84;;;12.23;96.88
70728;BME280;58314;47.722;17.652;2022-09-17T02:01:16;99658.59;;;12.24;96.32
70728;BME280;58314;47.722;17.652;2022-09-17T02:04:23;99655.63;;;12.29;95.50
70728;BME280;58314;47.722;17.652;2022-09-17T02:07:26;99648.41;;;12.31;93.70
70728;BME280;58314;47.722;17.652;2022-09-17T02:10:32;99644.06;;;12.30;95.07
70728;BME280;58314;47.722;17.652;2022-09-17T02:13:40;99636.31;;;12.27;95.62
70728;BME280;58314;47.722;17.652;2022-09-17T02:16:46;99631.44;;;12.20;94.13
70728;BME280;58314;47.722;17.652;2022-09-17T02:19:49;99627.97;;;12.33;93.50
70728;BME280;58314;47.722;17.652;2022-09-17T02:22:58;99622.66;;;12.33;93.24
70728;BME280;58314;47.722;17.652;2022-09-17T02:26:21;99627.97;;;12.33;93.96
70728;BME280;58314;47.722;17.652;2022-09-17T02:29:28;99625.81;;;12.25;92.85
70728;BME280;58314;47.722;17.652;2022-09-17T02:32:32;99618.81;;;12.24;93.57
70728;BME280;58314;47.722;17.652;2022-09-17T02:35:33;99620.81;;;12.20;93.69
70728;BME280;58314;47.722;17.652;2022-09-17T02:38:33;99628.44;;;12.25;93.00
70728;BME280;58314;47.722;17.652;2022-09-17T02:52:05;99627.16;;;12.18;96.10
70728;BME280;58314;47.722;17.652;2022-09-17T02:55:21;99607.41;;;12.09;95.72
70728;BME280;58314;47.722;17.652;2022-09-17T03:01:52;99584.81;;;12.16;95.02
70728;BME280;58314;47.722;17.652;2022-09-17T03:04:56;99579.63;;;12.15;97.12
70728;BME280;58314;47.722;17.652;2022-09-17T03:07:59;99581.53;;;12.13;98.50
70728;BME280;58314;47.722;17.652;2022-09-17T03:11:00;99569.28;;;11.97;98.01
70728;BME280;58314;47.722;17.652;2022-09-17T03:14:01;99557.94;;;11.95;96.43
70728;BME280;58314;47.722;17.652;2022-09-17T03:17:02;99558.88;;;11.94;96.74
70728;BME280;58314;47.722;17.652;2022-09-17T03:20:03;99559.75;;;11.95;97.76
70728;BME280;58314;47.722;17.652;2022-09-17T03:23:05;99563.03;;;11.98;98.43
70728;BME280;58314;47.722;17.652;2022-09-17T03:26:06;99572.91;;;11.96;98.98
70728;BME280;58314;47.722;17.652;2022-09-17T03:29:07;99578.38;;;11.93;97.46
70728;BME280;58314;47.722;17.652;2022-09-17T03:32:07;99583.78;;;11.92;97.24
70728;BME280;58314;47.722;17.652;2022-09-17T03:35:08;99592.84;;;12.02;97.93
70728;BME280;58314;47.722;17.652;2022-09-17T03:38:09;99603.84;;;11.96;98.88
70728;BME280;58314;47.722;17.652;2022-09-17T03:41:10;99592.59;;;11.92;98.80
70728;BME280;58314;47.722;17.652;2022-09-17T03:44:10;99597.50;;;11.84;100.00
70728;BME280;58314;47.722;17.652;2022-09-17T03:47:11;99604.50;;;11.85;100.00
70728;BME280;58314;47.722;17.652;2022-09-17T03:50:12;99600.25;;;11.82;100.00
70728;BME280;58314;47.722;17.652;2022-09-17T03:53:14;99595.53;;;11.73;100.00
70728;BME280;58314;47.722;17.652;2022-09-17T03:56:14;99583.25;;;11.72;100.00
70728;BME280;58314;47.722;17.652;2022-09-17T03:59:15;99574.22;;;11.75;100.00
70728;BME280;58314;47.722;17.652;2022-09-17T04:02:16;99567.81;;;11.79;100.00
70728;BME280;58314;47.722;17.652;2022-09-17T04:05:16;99574.44;;;11.72;100.00
70728;BME280;58314;47.722;17.652;2022-09-17T04:08:17;99578.50;;;11.63;100.00
70728;BME280;58314;47.722;17.652;2022-09-17T04:11:18;99567.91;;;11.63;100.00
70728;BME280;58314;47.722;17.652;2022-09-17T04:14:19;99554.09;;;11.72;100.00
70728;BME280;58314;47.722;17.652;2022-09-17T04:17:19;99541.13;;;11.67;100.00
70728;BME280;58314;47.722;17.652;2022-09-17T04:20:20;99534.72;;;11.57;100.00
70728;BME280;58314;47.722;17.652;2022-09-17T04:23:21;99529.44;;;11.57;100.00
70728;BME280;58314;47.722;17.652;2022-09-17T04:26:22;99530.41;;;11.56;100.00
70728;BME280;58314;47.722;17.652;2022-09-17T04:29:23;99525.56;;;11.48;100.00
70728;BME280;58314;47.722;17.652;2022-09-17T04:32:24;99527.47;;;11.46;100.00
70728;BME280;58314;47.722;17.652;2022-09-17T04:35:24;99544.03;;;11.50;100.00
70728;BME280;58314;47.722;17.652;2022-09-17T04:38:25;99558.09;;;11.50;100.00
70728;BME280;58314;47.722;17.652;2022-09-17T04:41:26;99569.84;;;11.46;100.00
70728;BME280;58314;47.722;17.652;2022-09-17T04:44:27;99581.47;;;11.44;100.00
70728;BME280;58314;47.722;17.652;2022-09-17T04:47:27;99582.63;;;11.40;100.00
70728;BME280;58314;47.722;17.652;2022-09-17T04:50:29;99589.16;;;11.48;100.00
70728;BME280;58314;47.722;17.652;2022-09-17T04:53:30;99581.94;;;11.50;100.00
70728;BME280;58314;47.722;17.652;2022-09-17T04:56:31;99584.31;;;11.55;100.00
70728;BME280;58314;47.722;17.652;2022-09-17T04:59:31;99578.66;;;11.61;100.00
70728;BME280;58314;47.722;17.652;2022-09-17T05:02:32;99589.03;;;11.64;100.00
70728;BME280;58314;47.722;17.652;2022-09-17T05:05:33;99585.81;;;11.74;100.00
70728;BME280;58314;47.722;17.652;2022-09-17T05:08:33;99577.63;;;11.77;100.00
70728;BME280;58314;47.722;17.652;2022-09-17T05:11:34;99576.34;;;11.69;100.00
70728;BME280;58314;47.722;17.652;2022-09-17T05:14:35;99565.16;;;11.79;100.00
70728;BME280;58314;47.722;17.652;2022-09-17T05:17:35;99557.41;;;11.76;100.00
70728;BME280;58314;47.722;17.652;2022-09-17T05:20:36;99542.16;;;11.79;100.00
70728;BME280;58314;47.722;17.652;2022-09-17T05:23:37;99541.28;;;11.93;100.00
70728;BME280;58314;47.722;17.652;2022-09-17T05:26:37;99541.63;;;12.01;100.00
70728;BME280;58314;47.722;17.652;2022-09-17T05:29:38;99537.88;;;11.91;99.74
70728;BME280;58314;47.722;17.652;2022-09-17T05:32:39;99552.22;;;12.01;100.00
70728;BME280;58314;47.722;17.652;2022-09-17T05:35:40;99540.97;;;11.98;100.00
70728;BME280;58314;47.722;17.652;2022-09-17T05:38:42;99541.28;;;11.93;99.65
70728;BME280;58314;47.722;17.652;2022-09-17T05:41:43;99546.81;;;12.03;99.70
70728;BME280;58314;47.722;17.652;2022-09-17T05:44:43;99557.75;;;12.11;100.00
70728;BME280;58314;47.722;17.652;2022-09-17T05:47:44;99566.06;;;12.19;100.00
70728;BME280;58314;47.722;17.652;2022-09-17T05:50:45;99586.34;;;12.20;99.20
70728;BME280;58314;47.722;17.652;2022-09-17T05:53:46;99587.53;;;12.29;98.92
70728;BME280;58314;47.722;17.652;2022-09-17T05:56:47;99593.06;;;12.39;100.00
70728;BME280;58314;47.722;17.652;2022-09-17T05:59:47;99585.97;;;12.39;100.00
70728;BME280;58314;47.722;17.652;2022-09-17T06:02:55;99582.50;;;12.52;98.26
70728;BME280;58314;47.722;17.652;2022-09-17T06:05:58;99592.28;;;12.64;99.59
70728;BME280;58314;47.722;17.652;2022-09-17T06:08:59;99617.63;;;12.68;96.55
70728;BME280;58314;47.722;17.652;2022-09-17T06:12:01;99620.19;;;12.70;95.92
70728;BME280;58314;47.722;17.652;2022-09-17T06:15:03;99620.00;;;12.73;96.21
70728;BME280;58314;47.722;17.652;2022-09-17T06:18:04;99624.66;;;12.82;95.45
70728;BME280;58314;47.722;17.652;2022-09-17T06:21:05;99629.72;;;12.72;94.33
70728;BME280;58314;47.722;17.652;2022-09-17T06:24:05;99625.59;;;12.81;95.70
70728;BME280;58314;47.722;17.652;2022-09-17T06:27:06;99622.75;;;12.84;96.54
70728;BME280;58314;47.722;17.652;2022-09-17T06:30:07;99615.22;;;12.91;95.38
70728;BME280;58314;47.722;17.652;2022-09-17T06:33:08;99605.78;;;13.12;93.54
70728;BME280;58314;47.722;17.652;2022-09-17T06:36:09;99595.69;;;13.05;94.14
70728;BME280;58314;47.722;17.652;2022-09-17T06:39:11;99604.16;;;13.23;94.99
70728;BME280;58314;47.722;17.652;2022-09-17T06:42:12;99606.06;;;13.21;93.47
70728;BME280;58314;47.722;17.652;2022-09-17T06:45:13;99601.28;;;13.26;93.08
70728;BME280;58314;47.722;17.652;2022-09-17T06:48:14;99602.06;;;13.41;94.45
70728;BME280;58314;47.722;17.652;2022-09-17T06:51:14;99608.13;;;13.43;92.78
70728;BME280;58314;47.722;17.652;2022-09-17T06:54:15;99607.75;;;13.60;91.81
70728;BME280;58314;47.722;17.652;2022-09-17T06:57:16;99616.88;;;13.69;89.12
70728;BME280;58314;47.722;17.652;2022-09-17T07:00:17;99621.16;;;13.71;88.99
70728;BME280;58314;47.722;17.652;2022-09-17T07:03:17;99621.47;;;13.54;89.58
70728;BME280;58314;47.722;17.652;2022-09-17T07:06:21;99623.81;;;13.59;90.13
70728;BME280;58314;47.722;17.652;2022-09-17T07:09:21;99617.72;;;13.69;90.10
70728;BME280;58314;47.722;17.652;2022-09-17T07:12:22;99611.50;;;13.58;90.14
70728;BME280;58314;47.722;17.652;2022-09-17T07:15:23;99614.69;;;13.63;90.42
70728;BME280;58314;47.722;17.652;2022-09-17T07:18:25;99625.59;;;13.71;91.71
70728;BME280;58314;47.722;17.652;2022-09-17T07:21:25;99624.84;;;13.69;88.22
70728;BME280;58314;47.722;17.652;2022-09-17T07:24:26;99631.94;;;13.81;89.67
70728;BME280;58314;47.722;17.652;2022-09-17T07:27:28;99632.47;;;13.86;87.63
70728;BME280;58314;47.722;17.652;2022-09-17T07:30:29;99621.75;;;14.12;85.57
70728;BME280;58314;47.722;17.652;2022-09-17T07:33:30;99621.56;;;14.26;84.70
70728;BME280;58314;47.722;17.652;2022-09-17T07:36:31;99620.34;;;14.55;83.98
70728;BME280;58314;47.722;17.652;2022-09-17T07:39:31;99618.59;;;14.42;82.02
70728;BME280;58314;47.722;17.652;2022-09-17T07:42:32;99623.09;;;14.42;80.04
70728;BME280;58314;47.722;17.652;2022-09-17T07:45:33;99635.69;;;14.51;80.41
70728;BME280;58314;47.722;17.652;2022-09-17T07:48:34;99654.41;;;14.38;82.05
70728;BME280;58314;47.722;17.652;2022-09-17T07:51:34;99661.56;;;14.38;79.94
70728;BME280;58314;47.722;17.652;2022-09-17T07:54:35;99670.09;;;14.30;83.14
70728;BME280;58314;47.722;17.652;2022-09-17T07:57:38;99666.84;;;14.13;81.36
70728;BME280;58314;47.722;17.652;2022-09-17T08:00:40;99678.72;;;13.97;79.46
70728;BME280;58314;47.722;17.652;2022-09-17T08:03:42;99689.50;;;13.82;83.25
70728;BME280;58314;47.722;17.652;2022-09-17T08:06:46;99681.00;;;13.77;86.56
70728;BME280;58314;47.722;17.652;2022-09-17T08:09:48;99681.53;;;13.69;88.63
70728;BME280;58314;47.722;17.652;2022-09-17T08:12:49;99673.97;;;13.76;87.75
70728;BME280;58314;47.722;17.652;2022-09-17T08:15:57;99642.38;;;13.84;85.96
70728;BME280;58314;47.722;17.652;2022-09-17T08:18:58;99641.28;;;13.87;85.45
70728;BME280;58314;47.722;17.652;2022-09-17T08:21:58;99631.63;;;13.73;86.30
70728;BME280;58314;47.722;17.652;2022-09-17T08:24:59;99639.50;;;13.87;85.25
70728;BME280;58314;47.722;17.652;2022-09-17T08:28:00;99639.91;;;13.94;85.33
70728;BME280;58314;47.722;17.652;2022-09-17T08:31:07;99671.03;;;14.05;84.16
70728;BME280;58314;47.722;17.652;2022-09-17T08:34:08;99676.00;;;14.09;85.28
70728;BME280;58314;47.722;17.652;2022-09-17T08:37:09;99672.44;;;13.98;82.94
70728;BME280;58314;47.722;17.652;2022-09-17T08:40:16;99673.31;;;14.22;80.01
70728;BME280;58314;47.722;17.652;2022-09-17T08:43:23;99678.75;;;14.45;81.64
70728;BME280;58314;47.722;17.652;2022-09-17T08:46:24;99684.25;;;14.30;82.99
70728;BME280;58314;47.722;17.652;2022-09-17T08:56:20;99676.03;;;14.34;79.15
70728;BME280;58314;47.722;17.652;2022-09-17T08:59:34;99678.47;;;14.37;81.83
70728;BME280;58314;47.722;17.652;2022-09-17T09:06:21;99675.09;;;14.59;80.70
70728;BME280;58314;47.722;17.652;2022-09-17T09:09:30;99686.41;;;14.49;80.32
70728;BME280;58314;47.722;17.652;2022-09-17T09:12:35;99677.13;;;14.31;80.82
70728;BME280;58314;47.722;17.652;2022-09-17T09:15:42;99681.59;;;14.30;80.31
70728;BME280;58314;47.722;17.652;2022-09-17T09:18:50;99682.97;;;14.23;82.42
70728;BME280;58314;47.722;17.652;2022-09-17T09:22:04;99673.44;;;14.21;80.65
70728;BME280;58314;47.722;17.652;2022-09-17T09:28:47;99685.81;;;14.09;80.84
70728;BME280;58314;47.722;17.652;2022-09-17T09:35:22;99691.97;;;14.09;82.25
70728;BME280;58314;47.722;17.652;2022-09-17T09:42:04;99691.25;;;14.31;78.97
70728;BME280;58314;47.722;17.652;2022-09-17T09:45:15;99699.03;;;14.35;80.03
70728;BME280;58314;47.722;17.652;2022-09-17T09:55:34;99672.63;;;14.80;77.13
70728;BME280;58314;47.722;17.652;2022-09-17T09:58:40;99671.75;;;15.03;73.49
70728;BME280;58314;47.722;17.652;2022-09-17T10:01:42;99695.56;;;15.97;72.72
70728;BME280;58314;47.722;17.652;2022-09-17T10:04:44;99710.00;;;15.83;69.20
70728;BME280;58314;47.722;17.652;2022-09-17T10:07:45;99704.53;;;16.07;70.72
70728;BME280;58314;47.722;17.652;2022-09-17T10:11:05;99682.19;;;16.19;71.52
70728;BME280;58314;47.722;17.652;2022-09-17T10:14:22;99655.81;;;15.49;71.79
70728;BME280;58314;47.722;17.652;2022-09-17T10:17:26;99649.72;;;16.03;69.67
70728;BME280;58314;47.722;17.652;2022-09-17T10:20:30;99664.63;;;16.06;66.36
70728;BME280;58314;47.722;17.652;2022-09-17T10:23:35;99666.16;;;16.19;67.67
70728;BME280;58314;47.722;17.652;2022-09-17T10:26:37;99671.84;;;16.37;65.64
70728;BME280;58314;47.722;17.652;2022-09-17T10:29:50;99672.78;;;16.48;63.50
70728;BME280;58314;47.722;17.652;2022-09-17T10:33:15;99667.94;;;16.74;64.08
70728;BME280;58314;47.722;17.652;2022-09-17T10:36:34;99661.13;;;16.70;61.94
70728;BME280;58314;47.722;17.652;2022-09-17T10:39:37;99644.00;;;17.05;58.79
70728;BME280;58314;47.722;17.652;2022-09-17T10:42:49;99658.38;;;16.39;57.98
70728;BME280;58314;47.722;17.652;2022-09-17T10:45:59;99652.72;;;16.53;62.42
70728;BME280;58314;47.722;17.652;2022-09-17T10:49:13;99638.09;;;16.36;62.96
70728;BME280;58314;47.722;17.652;2022-09-17T10:52:35;99625.97;;;15.55;64.72
70728;BME280;58314;47.722;17.652;2022-09-17T10:56:01;99627.47;;;15.81;63.77
70728;BME280;58314;47.722;17.652;2022-09-17T10:59:26;99639.69;;;15.50;62.38
70728;BME280;58314;47.722;17.652;2022-09-17T11:03:00;99626.19;;;15.74;66.49
70728;BME280;58314;47.722;17.652;2022-09-17T11:06:02;99625.16;;;16.21;62.55
70728;BME280;58314;47.722;17.652;2022-09-17T11:18:42;99630.13;;;15.81;64.27
70728;BME280;58314;47.722;17.652;2022-09-17T11:21:50;99631.19;;;15.56;63.55
70728;BME280;58314;47.722;17.652;2022-09-17T11:25:26;99626.34;;;15.73;63.88
70728;BME280;58314;47.722;17.652;2022-09-17T11:31:49;99603.53;;;15.91;63.25
70728;BME280;58314;47.722;17.652;2022-09-17T11:38:28;99625.72;;;15.92;61.77
70728;BME280;58314;47.722;17.652;2022-09-17T11:41:32;99611.66;;;15.67;59.47
70728;BME280;58314;47.722;17.652;2022-09-17T11:44:47;99603.09;;;15.75;59.71
70728;BME280;58314;47.722;17.652;2022-09-17T11:47:59;99590.00;;;16.15;61.24
70728;BME280;58314;47.722;17.652;2022-09-17T11:51:14;99587.72;;;16.11;60.43
70728;BME280;58314;47.722;17.652;2022-09-17T11:54:36;99606.50;;;15.77;57.56
70728;BME280;58314;47.722;17.652;2022-09-17T11:57:40;99615.94;;;15.81;62.34
70728;BME280;58314;47.722;17.652;2022-09-17T12:00:47;99618.81;;;15.55;61.82
70728;BME280;58314;47.722;17.652;2022-09-17T12:03:52;99598.84;;;14.93;60.67
70728;BME280;58314;47.722;17.652;2022-09-17T12:07:02;99584.19;;;15.21;60.09
70728;BME280;58314;47.722;17.652;2022-09-17T12:16:37;99549.94;;;15.94;61.09
70728;BME280;58314;47.722;17.652;2022-09-17T12:19:43;99564.94;;;16.60;56.71
70728;BME280;58314;47.722;17.652;2022-09-17T12:22:47;99605.13;;;16.59;58.80
70728;BME280;58314;47.722;17.652;2022-09-17T12:25:56;99589.69;;;16.30;59.33
70728;BME280;58314;47.722;17.652;2022-09-17T12:36:08;99548.88;;;15.86;62.60
70728;BME280;58314;47.722;17.652;2022-09-17T12:52:49;99525.09;;;15.16;61.25
70728;BME280;58314;47.722;17.652;2022-09-17T12:56:04;99522.19;;;15.19;62.84
70728;BME280;58314;47.722;17.652;2022-09-17T12:59:11;99521.06;;;15.22;67.49
70728;BME280;58314;47.722;17.652;2022-09-17T13:15:33;99579.94;;;15.07;63.17
70728;BME280;58314;47.722;17.652;2022-09-17T13:25:02;99553.78;;;14.90;65.05
70728;BME280;58314;47.722;17.652;2022-09-17T13:28:08;99542.00;;;14.70;65.48
70728;BME280;58314;47.722;17.652;2022-09-17T13:31:11;99534.91;;;14.93;64.60
70728;BME280;58314;47.722;17.652;2022-09-17T13:37:18;99521.47;;;15.17;65.50
70728;BME280;58314;47.722;17.652;2022-09-17T13:43:29;99533.31;;;14.79;63.21
70728;BME280;58314;47.722;17.652;2022-09-17T13:46:30;99541.31;;;15.02;63.77
70728;BME280;58314;47.722;17.652;2022-09-17T13:49:33;99555.94;;;14.85;64.35
70728;BME280;58314;47.722;17.652;2022-09-17T13:52:53;99546.75;;;14.78;64.11
70728;BME280;58314;47.722;17.652;2022-09-17T13:55:59;99545.41;;;14.83;66.03
70728;BME280;58314;47.722;17.652;2022-09-17T13:59:04;99537.47;;;14.48;67.11
70728;BME280;58314;47.722;17.652;2022-09-17T14:05:38;99522.22;;;14.50;66.95
70728;BME280;58314;47.722;17.652;2022-09-17T14:11:44;99525.56;;;14.41;69.24
70728;BME280;58314;47.722;17.652;2022-09-17T14:14:49;99521.31;;;14.27;67.64
70728;BME280;58314;47.722;17.652;2022-09-17T14:17:51;99518.66;;;14.27;69.95
70728;BME280;58314;47.722;17.652;2022-09-17T14:20:55;99530.06;;;14.05;71.29
70728;BME280;58314;47.722;17.652;2022-09-17T14:24:19;99537.75;;;13.97;68.51
70728;BME280;58314;47.722;17.652;2022-09-17T14:30:29;99552.28;;;14.04;69.44
70728;BME280;58314;47.722;17.652;2022-09-17T14:33:30;99551.75;;;13.87;72.09
70728;BME280;58314;47.722;17.652;2022-09-17T14:36:37;99560.34;;;13.91;68.39
70728;BME280;58314;47.722;17.652;2022-09-17T14:39:38;99549.13;;;13.99;71.50
70728;BME280;58314;47.722;17.652;2022-09-17T14:42:39;99549.41;;;13.83;68.27
70728;BME280;58314;47.722;17.652;2022-09-17T14:45:41;99553.03;;;13.82;70.77
70728;BME280;58314;47.722;17.652;2022-09-17T14:48:42;99549.31;;;13.84;73.12
70728;BME280;58314;47.722;17.652;2022-09-17T14:51:43;99533.63;;;13.68;73.19
70728;BME280;58314;47.722;17.652;2022-09-17T14:54:43;99533.84;;;13.65;73.78
70728;BME280;58314;47.722;17.652;2022-09-17T14:57:48;99530.69;;;13.84;72.47
70728;BME280;58314;47.722;17.652;2022-09-17T15:00:51;99529.66;;;13.74;73.06
70728;BME280;58314;47.722;17.652;2022-09-17T15:07:11;99515.88;;;13.69;72.16
70728;BME280;58314;47.722;17.652;2022-09-17T15:10:16;99514.03;;;13.69;73.70
70728;BME280;58314;47.722;17.652;2022-09-17T15:13:24;99524.25;;;13.75;72.39
70728;BME280;58314;47.722;17.652;2022-09-17T15:16:27;99528.72;;;13.75;72.67
70728;BME280;58314;47.722;17.652;2022-09-17T15:19:32;99521.41;;;13.66;74.13
70728;BME280;58314;47.722;17.652;2022-09-17T15:22:38;99524.31;;;13.63;73.11
70728;BME280;58314;47.722;17.652;2022-09-17T15:25:41;99522.19;;;13.55;76.86
70728;BME280;58314;47.722;17.652;2022-09-17T15:28:44;99503.91;;;13.50;75.73
70728;BME280;58314;47.722;17.652;2022-09-17T15:31:45;99514.50;;;13.39;76.71
70728;BME280;58314;47.722;17.652;2022-09-17T15:38:23;99506.06;;;13.45;76.25
70728;BME280;58314;47.722;17.652;2022-09-17T15:41:32;99503.75;;;13.41;76.30
70728;BME280;58314;47.722;17.652;2022-09-17T15:44:33;99491.53;;;13.25;73.27
70728;BME280;58314;47.722;17.652;2022-09-17T15:47:59;99477.19;;;13.41;75.73
70728;BME280;58314;47.722;17.652;2022-09-17T15:51:02;99473.38;;;13.19;75.85
70728;BME280;58314;47.722;17.652;2022-09-17T15:54:04;99469.16;;;13.16;76.56
70728;BME280;58314;47.722;17.652;2022-09-17T15:57:12;99473.84;;;13.13;75.03
70728;BME280;58314;47.722;17.652;2022-09-17T16:00:15;99470.81;;;13.17;76.38
70728;BME280;58314;47.722;17.652;2022-09-17T16:06:37;99479.47;;;13.08;76.89
70728;BME280;58314;47.722;17.652;2022-09-17T16:09:49;99470.03;;;13.04;78.83
70728;BME280;58314;47.722;17.652;2022-09-17T16:12:50;99470.03;;;12.91;78.68
70728;BME280;58314;47.722;17.652;2022-09-17T16:15:50;99460.28;;;12.92;79.04
70728;BME280;58314;47.722;17.652;2022-09-17T16:18:51;99451.69;;;12.88;77.82
70728;BME280;58314;47.722;17.652;2022-09-17T16:21:52;99448.06;;;12.89;77.59
70728;BME280;58314;47.722;17.652;2022-09-17T16:24:52;99444.38;;;12.79;80.26
70728;BME280;58314;47.722;17.652;2022-09-17T16:28:02;99455.09;;;12.77;80.03
70728;BME280;58314;47.722;17.652;2022-09-17T16:31:04;99471.25;;;12.74;79.11
70728;BME280;58314;47.722;17.652;2022-09-17T16:34:05;99481.44;;;12.55;77.63
70728;BME280;58314;47.722;17.652;2022-09-17T16:37:08;99465.50;;;12.55;78.58
70728;BME280;58314;47.722;17.652;2022-09-17T16:40:12;99459.28;;;12.43;82.12
70728;BME280;58314;47.722;17.652;2022-09-17T16:43:17;99455.75;;;12.42;80.71
70728;BME280;58314;47.722;17.652;2022-09-17T16:46:18;99449.28;;;12.47;81.93
70728;BME280;58314;47.722;17.652;2022-09-17T16:49:27;99451.41;;;12.41;81.87
70728;BME280;58314;47.722;17.652;2022-09-17T16:52:30;99455.97;;;12.39;82.88
70728;BME280;58314;47.722;17.652;2022-09-17T16:55:31;99456.09;;;12.38;85.11
70728;BME280;58314;47.722;17.652;2022-09-17T16:58:34;99454.28;;;12.26;83.76
70728;BME280;58314;47.722;17.652;2022-09-17T17:01:35;99446.44;;;12.24;82.59
70728;BME280;58314;47.722;17.652;2022-09-17T17:04:38;99442.59;;;12.15;84.32
70728;BME280;58314;47.722;17.652;2022-09-17T17:07:39;99448.53;;;12.19;84.35
70728;BME280;58314;47.722;17.652;2022-09-17T17:10:43;99438.63;;;12.08;83.14
70728;BME280;58314;47.722;17.652;2022-09-17T17:13:46;99440.16;;;12.12;84.17
70728;BME280;58314;47.722;17.652;2022-09-17T17:16:51;99444.72;;;12.10;85.22
70728;BME280;58314;47.722;17.652;2022-09-17T17:19:55;99444.81;;;12.09;85.19
70728;BME280;58314;47.722;17.652;2022-09-17T17:22:58;99467.16;;;12.04;84.81
70728;BME280;58314;47.722;17.652;2022-09-17T17:26:02;99473.97;;;12.09;85.07
70728;BME280;58314;47.722;17.652;2022-09-17T17:29:03;99477.13;;;12.01;84.61
70728;BME280;58314;47.722;17.652;2022-09-17T17:32:07;99485.97;;;12.01;85.07
70728;BME280;58314;47.722;17.652;2022-09-17T17:35:07;99485.31;;;12.11;87.12
70728;BME280;58314;47.722;17.652;2022-09-17T17:38:10;99490.09;;;12.05;86.09
70728;BME280;58314;47.722;17.652;2022-09-17T17:41:13;99488.41;;;11.90;87.56
70728;BME280;58314;47.722;17.652;2022-09-17T17:44:17;99489.75;;;11.97;86.01
70728;BME280;58314;47.722;17.652;2022-09-17T17:47:18;99502.19;;;11.82;88.80
70728;BME280;58314;47.722;17.652;2022-09-17T17:50:22;99506.34;;;11.86;87.97
70728;BME280;58314;47.722;17.652;2022-09-17T17:53:26;99513.53;;;11.84;87.79
70728;BME280;58314;47.722;17.652;2022-09-17T17:56:27;99512.56;;;11.85;88.48
70728;BME280;58314;47.722;17.652;2022-09-17T17:59:27;99505.88;;;11.80;86.43
70728;BME280;58314;47.722;17.652;2022-09-17T18:02:33;99508.34;;;11.83;86.56
70728;BME280;58314;47.722;17.652;2022-09-17T18:05:33;99510.06;;;11.84;85.65
70728;BME280;58314;47.722;17.652;2022-09-17T18:08:42;99526.88;;;11.83;87.41
70728;BME280;58314;47.722;17.652;2022-09-17T18:11:48;99530.81;;;11.77;84.81
70728;BME280;58314;47.722;17.652;2022-09-17T18:14:49;99542.25;;;11.78;87.16
70728;BME280;58314;47.722;17.652;2022-09-17T18:17:53;99549.38;;;11.90;86.14
70728;BME280;58314;47.722;17.652;2022-09-17T18:20:59;99548.56;;;11.90;87.26
70728;BME280;58314;47.722;17.652;2022-09-17T18:24:03;99552.13;;;11.88;84.64
70728;BME280;58314;47.722;17.652;2022-09-17T18:27:03;99551.13;;;11.91;85.65
70728;BME280;58314;47.722;17.652;2022-09-17T18:30:05;99566.81;;;11.94;85.86
70728;BME280;58314;47.722;17.652;2022-09-17T18:33:09;99569.69;;;11.91;86.58
70728;BME280;58314;47.722;17.652;2022-09-17T18:36:10;99566.47;;;11.86;86.65